Time,TemperatureF,DewpointF,PressureIn,WindDirection,WindDirectionDegrees,WindSpeedMPH,WindSpeedGustMPH,Humidity,HourlyPrecipIn,Conditions,Clouds,dailyrainin,SoftwareType,DateUTC
2015-05-29 00:03:00,53.6,49.2,30.01,West,270,0.0,2.0,85,0.00,,,0.00,WUHU216HW,2015-05-29 07:03:00,
2015-05-29 00:08:00,53.6,49.2,30.01,West,270,0.0,2.0,85,0.00,,,0.00,WUHU216HW,2015-05-29 07:08:00,
2015-05-29 00:13:00,53.6,49.2,30.01,SW,225,1.1,2.2,85,0.00,,,0.00,WUHU216HW,2015-05-29 07:13:00,
2015-05-29 00:18:00,53.5,49.1,30.01,West,270,0.4,2.2,85,0.00,,,0.00,WUHU216HW,2015-05-29 07:18:00,
2015-05-29 00:23:00,53.5,49.1,30.01,West,270,0.4,1.6,85,0.00,,,0.00,WUHU216HW,2015-05-29 07:23:00,
2015-05-29 00:28:00,53.3,48.9,30.01,West,270,0.4,1.6,85,0.00,,,0.00,WUHU216HW,2015-05-29 07:28:00,
2015-05-29 00:33:00,53.3,48.9,30.01,West,270,1.1,1.8,85,0.00,,,0.00,WUHU216HW,2015-05-29 07:33:00,
2015-05-29 00:38:00,53.3,48.9,30.01,West,270,0.9,1.8,85,0.00,,,0.00,WUHU216HW,2015-05-29 07:38:00,
2015-05-29 00:43:00,53.3,48.9,30.01,West,270,1.3,1.6,85,0.00,,,0.00,WUHU216HW,2015-05-29 07:43:00,
2015-05-29 00:48:00,53.3,48.9,30.01,WSW,248,0.4,1.6,85,0.00,,,0.00,WUHU216HW,2015-05-29 07:48:00,
2015-05-29 00:53:00,53.3,48.9,30.01,West,270,0.4,1.6,85,0.00,,,0.00,WUHU216HW,2015-05-29 07:53:00,
2015-05-29 00:58:00,53.3,48.9,30.01,WSW,248,0.4,1.1,85,0.00,,,0.00,WUHU216HW,2015-05-29 07:58:00,
2015-05-29 01:03:00,53.5,49.1,30.01,West,270,0.7,1.1,85,0.00,,,0.00,WUHU216HW,2015-05-29 08:03:00,
2015-05-29 01:08:00,53.3,48.9,30.01,WSW,248,0.7,1.1,85,0.00,,,0.00,WUHU216HW,2015-05-29 08:08:00,
2015-05-29 01:13:00,53.3,48.9,30.01,West,270,0.0,1.1,85,0.00,,,0.00,WUHU216HW,2015-05-29 08:13:00,
2015-05-29 01:18:00,53.3,48.9,30.01,West,270,0.0,1.1,85,0.00,,,0.00,WUHU216HW,2015-05-29 08:18:00,
2015-05-29 01:23:00,53.3,48.9,30.00,West,270,0.9,0.9,85,0.00,,,0.00,WUHU216HW,2015-05-29 08:23:00,
2015-05-29 01:28:00,53.3,48.9,30.00,WSW,248,0.0,0.9,85,0.00,,,0.00,WUHU216HW,2015-05-29 08:28:00,
2015-05-29 01:33:00,53.3,48.9,30.00,West,270,0.0,1.1,85,0.00,,,0.00,WUHU216HW,2015-05-29 08:33:00,
2015-05-29 01:38:00,53.3,48.9,30.00,West,270,0.2,1.1,85,0.00,,,0.00,WUHU216HW,2015-05-29 08:38:00,
2015-05-29 01:43:00,53.3,48.9,30.00,West,270,0.0,0.7,85,0.00,,,0.00,WUHU216HW,2015-05-29 08:43:00,
2015-05-29 01:48:00,53.5,49.1,30.00,West,270,0.0,0.9,85,0.00,,,0.00,WUHU216HW,2015-05-29 08:48:00,
2015-05-29 01:53:00,53.5,49.1,30.00,West,270,0.0,0.9,85,0.00,,,0.00,WUHU216HW,2015-05-29 08:53:00,
2015-05-29 01:58:00,53.5,49.1,30.00,West,270,0.0,0.7,85,0.00,,,0.00,WUHU216HW,2015-05-29 08:58:00,
2015-05-29 02:03:00,53.6,49.2,30.00,SW,225,0.0,0.7,85,0.00,,,0.00,WUHU216HW,2015-05-29 09:03:00,
2015-05-29 02:08:00,53.6,49.2,30.00,WSW,248,0.0,0.0,85,0.00,,,0.00,WUHU216HW,2015-05-29 09:08:00,
2015-05-29 02:13:00,53.6,49.2,30.00,WSW,248,0.2,0.4,85,0.00,,,0.00,WUHU216HW,2015-05-29 09:13:00,
2015-05-29 02:18:00,53.6,49.2,30.00,WSW,248,0.4,0.4,85,0.00,,,0.00,WUHU216HW,2015-05-29 09:18:00,
2015-05-29 02:23:00,53.6,49.0,30.00,West,270,0.4,1.1,84,0.00,,,0.00,WUHU216HW,2015-05-29 09:23:00,
2015-05-29 02:28:00,53.6,49.0,30.00,WSW,248,0.0,1.1,84,0.00,,,0.00,WUHU216HW,2015-05-29 09:28:00,
2015-05-29 02:33:00,53.6,49.0,30.00,West,270,0.9,1.1,84,0.00,,,0.00,WUHU216HW,2015-05-29 09:33:00,
2015-05-29 02:38:00,53.6,49.0,30.00,WSW,248,0.2,1.1,84,0.00,,,0.00,WUHU216HW,2015-05-29 09:38:00,
2015-05-29 02:43:00,53.6,49.2,30.00,WSW,248,0.0,2.5,85,0.00,,,0.00,WUHU216HW,2015-05-29 09:43:00,
2015-05-29 02:48:00,53.8,49.1,30.00,West,270,0.0,2.5,84,0.00,,,0.00,WUHU216HW,2015-05-29 09:48:00,
2015-05-29 02:53:00,53.8,49.1,30.00,WSW,248,0.0,1.8,84,0.00,,,0.00,WUHU216HW,2015-05-29 09:53:00,
2015-05-29 02:58:00,53.8,49.1,30.00,NW,315,0.0,1.8,84,0.00,,,0.00,WUHU216HW,2015-05-29 09:58:00,
2015-05-29 03:03:00,54.0,49.2,30.00,WSW,248,0.4,1.1,84,0.00,,,0.00,WUHU216HW,2015-05-29 10:03:00,
2015-05-29 03:08:00,53.8,49.1,30.00,SW,225,0.7,1.1,84,0.00,,,0.00,WUHU216HW,2015-05-29 10:08:00,
2015-05-29 03:13:00,54.0,49.2,30.00,SW,225,0.2,1.1,84,0.00,,,0.00,WUHU216HW,2015-05-29 10:13:00,
2015-05-29 03:18:00,54.0,49.2,29.99,WSW,248,0.2,1.8,84,0.00,,,0.00,WUHU216HW,2015-05-29 10:18:00,
2015-05-29 03:23:00,54.0,49.2,30.00,WSW,248,1.8,1.8,84,0.00,,,0.00,WUHU216HW,2015-05-29 10:23:00,
2015-05-29 03:28:00,54.0,49.2,29.99,WSW,248,0.7,1.8,84,0.00,,,0.00,WUHU216HW,2015-05-29 10:28:00,
2015-05-29 03:33:00,54.0,49.2,29.99,WSW,248,0.4,1.8,84,0.00,,,0.00,WUHU216HW,2015-05-29 10:33:00,
2015-05-29 03:38:00,54.0,49.2,29.99,WSW,248,0.0,0.9,84,0.00,,,0.00,WUHU216HW,2015-05-29 10:38:00,
2015-05-29 03:43:00,54.0,49.2,29.99,WSW,248,0.4,1.1,84,0.00,,,0.00,WUHU216HW,2015-05-29 10:43:00,
2015-05-29 03:48:00,54.0,49.2,29.99,WSW,248,0.0,1.1,84,0.00,,,0.00,WUHU216HW,2015-05-29 10:48:00,
2015-05-29 03:53:00,54.0,49.2,29.99,WSW,248,0.7,1.8,84,0.00,,,0.00,WUHU216HW,2015-05-29 10:53:00,
2015-05-29 03:58:00,54.0,49.2,29.99,West,270,0.0,1.8,84,0.00,,,0.00,WUHU216HW,2015-05-29 10:58:00,
2015-05-29 04:03:00,54.0,49.2,29.99,WSW,248,1.1,1.8,84,0.00,,,0.00,WUHU216HW,2015-05-29 11:03:00,
2015-05-29 04:08:00,54.0,49.2,29.98,WSW,248,0.0,1.8,84,0.00,,,0.00,WUHU216HW,2015-05-29 11:08:00,
2015-05-29 04:13:00,54.0,49.2,29.99,WSW,248,0.0,1.8,84,0.00,,,0.00,WUHU216HW,2015-05-29 11:13:00,
2015-05-29 04:18:00,54.0,49.2,29.99,WSW,248,0.0,0.9,84,0.00,,,0.00,WUHU216HW,2015-05-29 11:18:00,
2015-05-29 04:23:00,54.0,49.2,29.98,WSW,248,0.0,0.0,84,0.00,,,0.00,WUHU216HW,2015-05-29 11:23:00,
2015-05-29 04:28:00,54.0,49.2,29.98,WSW,248,1.1,2.9,84,0.00,,,0.00,WUHU216HW,2015-05-29 11:28:00,
2015-05-29 04:33:00,54.0,49.2,29.98,WSW,248,0.4,2.9,84,0.00,,,0.00,WUHU216HW,2015-05-29 11:33:00,
2015-05-29 04:38:00,54.0,49.2,29.98,West,270,0.4,1.8,84,0.00,,,0.00,WUHU216HW,2015-05-29 11:38:00,
2015-05-29 04:43:00,54.0,49.2,29.98,West,270,0.2,1.8,84,0.00,,,0.00,WUHU216HW,2015-05-29 11:43:00,
2015-05-29 04:48:00,53.8,49.1,29.98,NNW,338,0.7,0.9,84,0.00,,,0.00,WUHU216HW,2015-05-29 11:48:00,
2015-05-29 04:53:00,53.8,49.1,29.98,WSW,248,0.4,0.9,84,0.00,,,0.00,WUHU216HW,2015-05-29 11:53:00,
2015-05-29 04:58:00,53.8,49.1,29.98,West,270,0.4,1.1,84,0.00,,,0.00,WUHU216HW,2015-05-29 11:58:00,
2015-05-29 05:03:00,53.8,49.1,29.98,West,270,0.0,1.1,84,0.00,,,0.00,WUHU216HW,2015-05-29 12:03:00,
2015-05-29 05:08:00,53.8,49.1,29.98,WSW,248,0.0,0.4,84,0.00,,,0.00,WUHU216HW,2015-05-29 12:08:00,
2015-05-29 05:13:00,53.8,49.1,29.98,SW,225,0.9,0.9,84,0.00,,,0.00,WUHU216HW,2015-05-29 12:13:00,
2015-05-29 05:18:00,53.8,49.1,29.98,WSW,248,0.2,0.9,84,0.00,,,0.00,WUHU216HW,2015-05-29 12:18:00,
2015-05-29 05:23:00,53.8,49.1,29.98,WSW,248,0.4,0.4,84,0.00,,,0.00,WUHU216HW,2015-05-29 12:23:00,
2015-05-29 05:28:00,53.8,49.1,29.98,West,270,0.0,0.4,84,0.00,,,0.00,WUHU216HW,2015-05-29 12:28:00,
2015-05-29 05:33:00,53.8,49.1,29.98,West,270,0.0,0.4,84,0.00,,,0.00,WUHU216HW,2015-05-29 12:33:00,
2015-05-29 05:38:00,53.8,49.1,29.98,West,270,0.0,0.4,84,0.00,,,0.00,WUHU216HW,2015-05-29 12:38:00,
2015-05-29 05:43:00,53.8,49.4,29.98,WSW,248,0.9,0.9,85,0.00,,,0.00,WUHU216HW,2015-05-29 12:43:00,
2015-05-29 05:48:00,53.8,49.4,29.98,WSW,248,0.0,0.9,85,0.00,,,0.00,WUHU216HW,2015-05-29 12:48:00,
2015-05-29 05:53:00,53.8,49.4,29.98,WSW,248,0.0,0.9,85,0.00,,,0.00,WUHU216HW,2015-05-29 12:53:00,
2015-05-29 05:58:00,53.8,49.4,29.98,WSW,248,0.2,0.9,85,0.00,,,0.00,WUHU216HW,2015-05-29 12:58:00,
2015-05-29 06:03:00,53.8,49.4,29.98,West,270,0.0,1.1,85,0.00,,,0.00,WUHU216HW,2015-05-29 13:03:00,
2015-05-29 06:08:00,53.8,49.4,29.98,WSW,248,0.0,1.1,85,0.00,,,0.00,WUHU216HW,2015-05-29 13:08:00,
2015-05-29 06:13:00,53.8,49.4,29.98,WSW,248,0.2,0.7,85,0.00,,,0.00,WUHU216HW,2015-05-29 13:13:00,
2015-05-29 06:18:00,53.8,49.4,29.98,WSW,248,0.0,0.7,85,0.00,,,0.00,WUHU216HW,2015-05-29 13:18:00,
2015-05-29 06:23:00,53.8,49.4,29.99,WSW,248,0.2,0.4,85,0.00,,,0.00,WUHU216HW,2015-05-29 13:23:00,
2015-05-29 06:28:00,53.8,49.4,29.99,WSW,248,0.0,0.9,85,0.00,,,0.00,WUHU216HW,2015-05-29 13:28:00,
2015-05-29 06:33:00,53.8,49.4,29.99,West,270,0.0,0.9,85,0.00,,,0.00,WUHU216HW,2015-05-29 13:33:00,
2015-05-29 06:38:00,53.8,49.4,29.99,West,270,0.9,0.9,85,0.00,,,0.00,WUHU216HW,2015-05-29 13:38:00,
2015-05-29 06:43:00,53.8,49.4,29.99,WSW,248,0.0,0.9,85,0.00,,,0.00,WUHU216HW,2015-05-29 13:43:00,
2015-05-29 06:48:00,54.0,49.6,29.99,West,270,0.9,1.1,85,0.00,,,0.00,WUHU216HW,2015-05-29 13:48:00,
2015-05-29 06:53:00,54.0,49.6,29.99,West,270,0.4,1.1,85,0.00,,,0.00,WUHU216HW,2015-05-29 13:53:00,
2015-05-29 06:58:00,54.0,49.6,29.99,WSW,248,0.0,0.9,85,0.00,,,0.00,WUHU216HW,2015-05-29 13:58:00,
2015-05-29 07:03:00,54.0,49.6,29.99,West,270,0.0,0.7,85,0.00,,,0.00,WUHU216HW,2015-05-29 14:03:00,
2015-05-29 07:08:00,54.2,49.8,29.99,West,270,0.2,1.1,85,0.00,,,0.00,WUHU216HW,2015-05-29 14:08:00,
2015-05-29 07:13:00,54.0,49.6,29.99,WSW,248,0.7,1.1,85,0.00,,,0.00,WUHU216HW,2015-05-29 14:13:00,
2015-05-29 07:18:00,54.2,49.8,29.99,WSW,248,0.0,1.1,85,0.00,,,0.00,WUHU216HW,2015-05-29 14:18:00,
2015-05-29 07:23:00,54.2,49.8,29.99,WSW,248,0.7,2.5,85,0.00,,,0.00,WUHU216HW,2015-05-29 14:23:00,
2015-05-29 07:28:00,54.4,50.0,29.99,West,270,0.4,2.5,85,0.00,,,0.00,WUHU216HW,2015-05-29 14:28:00,
2015-05-29 07:33:00,54.4,50.0,29.99,West,270,0.9,1.3,85,0.00,,,0.00,WUHU216HW,2015-05-29 14:33:00,
2015-05-29 07:38:00,54.4,50.0,29.99,West,270,0.9,1.6,85,0.00,,,0.00,WUHU216HW,2015-05-29 14:38:00,
2015-05-29 07:43:00,54.4,50.0,29.99,WSW,248,0.4,1.6,85,0.00,,,0.00,WUHU216HW,2015-05-29 14:43:00,
2015-05-29 07:48:00,54.4,50.0,30.00,West,270,0.4,3.4,85,0.00,,,0.00,WUHU216HW,2015-05-29 14:48:00,
2015-05-29 07:53:00,54.4,50.0,30.00,West,270,0.7,3.4,85,0.00,,,0.00,WUHU216HW,2015-05-29 14:53:00,
2015-05-29 07:58:00,54.5,50.1,30.00,West,270,1.3,1.8,85,0.00,,,0.00,WUHU216HW,2015-05-29 14:58:00,
2015-05-29 08:03:00,54.5,49.8,30.00,WSW,248,0.7,2.9,84,0.00,,,0.00,WUHU216HW,2015-05-29 15:03:00,
2015-05-29 08:08:00,54.7,50.0,30.00,SW,225,0.7,2.9,84,0.00,,,0.00,WUHU216HW,2015-05-29 15:08:00,
2015-05-29 08:13:00,54.7,50.0,30.00,WSW,248,1.1,2.2,84,0.00,,,0.00,WUHU216HW,2015-05-29 15:13:00,
2015-05-29 08:18:00,54.7,50.0,30.00,West,270,0.7,2.2,84,0.00,,,0.00,WUHU216HW,2015-05-29 15:18:00,